sensor_id;sensor_type;location;lat;lon;timestamp;P1;durP1;ratioP1;P2;durP2;ratioP2
16593;SDS011;8410;52.532;13.336;2022-10-31T00:01:09;38.30;;;29.40;;
16593;SDS011;8410;52.532;13.336;2022-10-31T00:03:37;35.73;;;28.87;;
16593;SDS011;8410;52.532;13.336;2022-10-31T00:06:06;34.60;;;27.53;;
16593;SDS011;8410;52.532;13.336;2022-10-31T00:08:34;33.33;;;27.57;;
16593;SDS011;8410;52.532;13.336;2022-10-31T00:11:01;33.80;;;28.80;;
16593;SDS011;8410;52.532;13.336;2022-10-31T00:13:29;37.70;;;29.33;;
16593;SDS011;8410;52.532;13.336;2022-10-31T00:15:56;32.70;;;28.57;;
16593;SDS011;8410;52.532;13.336;2022-10-31T00:18:23;31.40;;;27.43;;
16593;SDS011;8410;52.532;13.336;2022-10-31T00:20:57;33.17;;;27.73;;
16593;SDS011;8410;52.532;13.336;2022-10-31T00:23:27;32.97;;;28.13;;
16593;SDS011;8410;52.532;13.336;2022-10-31T00:25:59;29.03;;;25.63;;
16593;SDS011;8410;52.532;13.336;2022-10-31T00:28:27;38.37;;;28.30;;
16593;SDS011;8410;52.532;13.336;2022-10-31T00:30:57;32.73;;;29.20;;
16593;SDS011;8410;52.532;13.336;2022-10-31T00:33:25;38.63;;;28.00;;
16593;SDS011;8410;52.532;13.336;2022-10-31T00:35:53;34.83;;;26.93;;
16593;SDS011;8410;52.532;13.336;2022-10-31T00:38:21;34.90;;;27.37;;
16593;SDS011;8410;52.532;13.336;2022-10-31T00:40:49;31.97;;;24.57;;
16593;SDS011;8410;52.532;13.336;2022-10-31T00:43:17;32.80;;;25.53;;
16593;SDS011;8410;52.532;13.336;2022-10-31T00:45:44;31.53;;;26.03;;
16593;SDS011;8410;52.532;13.336;2022-10-31T00:48:12;35.80;;;26.10;;
16593;SDS011;8410;52.532;13.336;2022-10-31T00:50:39;30.00;;;23.43;;
16593;SDS011;8410;52.532;13.336;2022-10-31T00:53:07;28.40;;;23.67;;
16593;SDS011;8410;52.532;13.336;2022-10-31T00:55:35;28.20;;;25.03;;
16593;SDS011;8410;52.532;13.336;2022-10-31T00:58:03;28.07;;;25.23;;
16593;SDS011;8410;52.532;13.336;2022-10-31T01:00:31;33.37;;;25.17;;
16593;SDS011;8410;52.532;13.336;2022-10-31T01:02:58;31.13;;;24.80;;
16593;SDS011;8410;52.532;13.336;2022-10-31T01:05:26;29.03;;;23.93;;
16593;SDS011;8410;52.532;13.336;2022-10-31T01:07:54;26.20;;;23.37;;
16593;SDS011;8410;52.532;13.336;2022-10-31T01:10:21;28.27;;;23.40;;
16593;SDS011;8410;52.532;13.336;2022-10-31T01:12:49;25.83;;;23.03;;
16593;SDS011;8410;52.532;13.336;2022-10-31T01:15:19;29.37;;;23.57;;
16593;SDS011;8410;52.532;13.336;2022-10-31T01:17:49;29.00;;;22.60;;
16593;SDS011;8410;52.532;13.336;2022-10-31T01:20:17;30.60;;;23.70;;
16593;SDS011;8410;52.532;13.336;2022-10-31T01:22:45;28.57;;;23.63;;
16593;SDS011;8410;52.532;13.336;2022-10-31T01:25:12;25.90;;;21.80;;
16593;SDS011;8410;52.532;13.336;2022-10-31T01:27:39;25.73;;;21.53;;
16593;SDS011;8410;52.532;13.336;2022-10-31T01:30:07;27.60;;;22.17;;
16593;SDS011;8410;52.532;13.336;2022-10-31T01:32:36;27.63;;;22.00;;
16593;SDS011;8410;52.532;13.336;2022-10-31T01:35:04;29.17;;;23.57;;
16593;SDS011;8410;52.532;13.336;2022-10-31T01:37:32;30.53;;;22.97;;
16593;SDS011;8410;52.532;13.336;2022-10-31T01:39:59;26.67;;;21.57;;
16593;SDS011;8410;52.532;13.336;2022-10-31T01:42:26;24.30;;;21.67;;
16593;SDS011;8410;52.532;13.336;2022-10-31T01:44:55;29.30;;;22.70;;
16593;SDS011;8410;52.532;13.336;2022-10-31T01:50:15;34.50;;;24.87;;
16593;SDS011;8410;52.532;13.336;2022-10-31T01:52:53;31.30;;;25.83;;
16593;SDS011;8410;52.532;13.336;2022-10-31T01:55:22;29.53;;;24.73;;
16593;SDS011;8410;52.532;13.336;2022-10-31T01:57:56;36.57;;;25.80;;
16593;SDS011;8410;52.532;13.336;2022-10-31T02:00:27;33.10;;;23.33;;
16593;SDS011;8410;52.532;13.336;2022-10-31T02:02:56;32.77;;;24.93;;
16593;SDS011;8410;52.532;13.336;2022-10-31T02:05:27;33.80;;;25.80;;
16593;SDS011;8410;52.532;13.336;2022-10-31T02:07:57;29.17;;;25.50;;
16593;SDS011;8410;52.532;13.336;2022-10-31T02:10:29;32.03;;;26.07;;
16593;SDS011;8410;52.532;13.336;2022-10-31T02:13:00;37.57;;;26.63;;
16593;SDS011;8410;52.532;13.336;2022-10-31T02:15:30;37.00;;;28.43;;
16593;SDS011;8410;52.532;13.336;2022-10-31T02:18:00;38.77;;;28.90;;
16593;SDS011;8410;52.532;13.336;2022-10-31T02:20:29;36.53;;;28.03;;
16593;SDS011;8410;52.532;13.336;2022-10-31T02:23:13;37.57;;;25.87;;
16593;SDS011;8410;52.532;13.336;2022-10-31T02:26:29;33.60;;;26.57;;
16593;SDS011;8410;52.532;13.336;2022-10-31T02:29:13;30.40;;;26.20;;
16593;SDS011;8410;52.532;13.336;2022-10-31T02:31:59;31.27;;;24.63;;
16593;SDS011;8410;52.532;13.336;2022-10-31T02:34:32;31.20;;;23.47;;
16593;SDS011;8410;52.532;13.336;2022-10-31T02:37:06;30.77;;;25.30;;
16593;SDS011;8410;52.532;13.336;2022-10-31T02:39:40;32.87;;;25.60;;
16593;SDS011;8410;52.532;13.336;2022-10-31T02:42:17;28.77;;;23.43;;
16593;SDS011;8410;52.532;13.336;2022-10-31T02:44:50;29.60;;;23.57;;
16593;SDS011;8410;52.532;13.336;2022-10-31T02:47:25;28.47;;;23.43;;
16593;SDS011;8410;52.532;13.336;2022-10-31T02:49:55;25.33;;;22.57;;
16593;SDS011;8410;52.532;13.336;2022-10-31T02:52:27;26.73;;;23.40;;
16593;SDS011;8410;52.532;13.336;2022-10-31T02:54:56;30.07;;;22.20;;
16593;SDS011;8410;52.532;13.336;2022-10-31T02:57:24;24.63;;;21.40;;
16593;SDS011;8410;52.532;13.336;2022-10-31T02:59:56;25.57;;;21.70;;
16593;SDS011;8410;52.532;13.336;2022-10-31T03:02:38;30.37;;;22.47;;
16593;SDS011;8410;52.532;13.336;2022-10-31T03:05:21;28.20;;;22.30;;
16593;SDS011;8410;52.532;13.336;2022-10-31T03:07:56;26.97;;;22.00;;
16593;SDS011;8410;52.532;13.336;2022-10-31T03:10:31;26.63;;;22.13;;
16593;SDS011;8410;52.532;13.336;2022-10-31T03:13:08;25.70;;;22.10;;
16593;SDS011;8410;52.532;13.336;2022-10-31T03:15:39;30.97;;;21.63;;
16593;SDS011;8410;52.532;13.336;2022-10-31T03:18:11;28.43;;;21.07;;
16593;SDS011;8410;52.532;13.336;2022-10-31T03:20:45;27.47;;;22.00;;
16593;SDS011;8410;52.532;13.336;2022-10-31T03:23:17;27.77;;;21.10;;
16593;SDS011;8410;52.532;13.336;2022-10-31T03:25:48;26.23;;;21.07;;
16593;SDS011;8410;52.532;13.336;2022-10-31T03:28:16;25.03;;;19.57;;
16593;SDS011;8410;52.532;13.336;2022-10-31T03:30:47;24.30;;;19.47;;
16593;SDS011;8410;52.532;13.336;2022-10-31T03:33:20;22.80;;;19.93;;
16593;SDS011;8410;52.532;13.336;2022-10-31T03:35:50;23.07;;;19.63;;
16593;SDS011;8410;52.532;13.336;2022-10-31T03:38:21;23.47;;;18.10;;
16593;SDS011;8410;52.532;13.336;2022-10-31T03:40:49;26.47;;;18.90;;
16593;SDS011;8410;52.532;13.336;2022-10-31T03:43:21;22.37;;;16.90;;
16593;SDS011;8410;52.532;13.336;2022-10-31T03:45:53;19.30;;;15.47;;
16593;SDS011;8410;52.532;13.336;2022-10-31T03:48:23;23.57;;;16.10;;
16593;SDS011;8410;52.532;13.336;2022-10-31T03:50:55;20.40;;;15.67;;
16593;SDS011;8410;52.532;13.336;2022-10-31T03:53:30;23.43;;;17.87;;
16593;SDS011;8410;52.532;13.336;2022-10-31T03:56:00;24.90;;;16.80;;
16593;SDS011;8410;52.532;13.336;2022-10-31T03:58:32;19.27;;;15.00;;
16593;SDS011;8410;52.532;13.336;2022-10-31T04:01:05;23.40;;;16.30;;
16593;SDS011;8410;52.532;13.336;2022-10-31T04:03:38;20.90;;;16.50;;
16593;SDS011;8410;52.532;13.336;2022-10-31T04:06:07;20.33;;;15.47;;
16593;SDS011;8410;52.532;13.336;2022-10-31T04:08:39;25.63;;;17.43;;
16593;SDS011;8410;52.532;13.336;2022-10-31T04:11:09;19.30;;;14.70;;
16593;SDS011;8410;52.532;13.336;2022-10-31T04:13:39;20.10;;;16.37;;
16593;SDS011;8410;52.532;13.336;2022-10-31T04:16:09;20.27;;;15.53;;
16593;SDS011;8410;52.532;13.336;2022-10-31T04:18:43;23.33;;;17.07;;
16593;SDS011;8410;52.532;13.336;2022-10-31T04:21:11;22.33;;;15.60;;
16593;SDS011;8410;52.532;13.336;2022-10-31T04:23:38;22.93;;;16.07;;
16593;SDS011;8410;52.532;13.336;2022-10-31T04:26:06;23.73;;;15.53;;
16593;SDS011;8410;52.532;13.336;2022-10-31T04:28:35;18.97;;;16.20;;
16593;SDS011;8410;52.532;13.336;2022-10-31T04:31:02;21.00;;;16.30;;
16593;SDS011;8410;52.532;13.336;2022-10-31T04:33:30;22.13;;;17.30;;
16593;SDS011;8410;52.532;13.336;2022-10-31T04:35:59;20.73;;;17.77;;
16593;SDS011;8410;52.532;13.336;2022-10-31T04:38:26;25.77;;;16.97;;
16593;SDS011;8410;52.532;13.336;2022-10-31T04:40:53;22.17;;;16.83;;
16593;SDS011;8410;52.532;13.336;2022-10-31T04:43:21;20.27;;;15.83;;
16593;SDS011;8410;52.532;13.336;2022-10-31T04:45:48;21.03;;;15.50;;
16593;SDS011;8410;52.532;13.336;2022-10-31T04:48:16;21.90;;;15.73;;
16593;SDS011;8410;52.532;13.336;2022-10-31T04:50:43;19.17;;;15.33;;
16593;SDS011;8410;52.532;13.336;2022-10-31T04:53:12;19.67;;;14.67;;
16593;SDS011;8410;52.532;13.336;2022-10-31T04:55:39;21.57;;;15.70;;
16593;SDS011;8410;52.532;13.336;2022-10-31T04:58:07;23.00;;;15.50;;
16593;SDS011;8410;52.532;13.336;2022-10-31T05:00:34;23.10;;;16.67;;
16593;SDS011;8410;52.532;13.336;2022-10-31T05:03:02;20.67;;;16.47;;
16593;SDS011;8410;52.532;13.336;2022-10-31T05:05:30;23.30;;;17.43;;
16593;SDS011;8410;52.532;13.336;2022-10-31T05:07:58;21.57;;;16.73;;
16593;SDS011;8410;52.532;13.336;2022-10-31T05:10:28;21.50;;;16.03;;
16593;SDS011;8410;52.532;13.336;2022-10-31T05:12:57;19.47;;;16.33;;
16593;SDS011;8410;52.532;13.336;2022-10-31T05:15:27;20.60;;;15.67;;
16593;SDS011;8410;52.532;13.336;2022-10-31T05:17:55;21.30;;;16.00;;
16593;SDS011;8410;52.532;13.336;2022-10-31T05:20:24;22.23;;;16.67;;
16593;SDS011;8410;52.532;13.336;2022-10-31T05:22:53;24.07;;;16.77;;
16593;SDS011;8410;52.532;13.336;2022-10-31T05:25:22;23.57;;;17.93;;
16593;SDS011;8410;52.532;13.336;2022-10-31T05:27:54;21.27;;;15.83;;
16593;SDS011;8410;52.532;13.336;2022-10-31T05:30:23;20.80;;;15.23;;
16593;SDS011;8410;52.532;13.336;2022-10-31T05:32:52;22.93;;;16.63;;
16593;SDS011;8410;52.532;13.336;2022-10-31T05:35:21;25.40;;;16.63;;
16593;SDS011;8410;52.532;13.336;2022-10-31T05:37:51;20.47;;;17.90;;
16593;SDS011;8410;52.532;13.336;2022-10-31T05:40:19;22.00;;;17.00;;
16593;SDS011;8410;52.532;13.336;2022-10-31T05:42:49;25.43;;;18.23;;
16593;SDS011;8410;52.532;13.336;2022-10-31T05:45:19;24.50;;;17.70;;
16593;SDS011;8410;52.532;13.336;2022-10-31T05:47:51;24.00;;;17.60;;
16593;SDS011;8410;52.532;13.336;2022-10-31T05:50:19;21.47;;;17.27;;
16593;SDS011;8410;52.532;13.336;2022-10-31T05:52:47;21.13;;;16.67;;
16593;SDS011;8410;52.532;13.336;2022-10-31T05:55:20;25.53;;;17.60;;
16593;SDS011;8410;52.532;13.336;2022-10-31T05:57:48;22.00;;;17.33;;
16593;SDS011;8410;52.532;13.336;2022-10-31T06:00:15;24.37;;;18.00;;
16593;SDS011;8410;52.532;13.336;2022-10-31T06:02:44;21.17;;;17.10;;
16593;SDS011;8410;52.532;13.336;2022-10-31T06:05:12;23.43;;;16.33;;
16593;SDS011;8410;52.532;13.336;2022-10-31T06:07:39;24.33;;;16.60;;
16593;SDS011;8410;52.532;13.336;2022-10-31T06:10:07;21.63;;;18.53;;
16593;SDS011;8410;52.532;13.336;2022-10-31T06:12:35;22.83;;;17.37;;
16593;SDS011;8410;52.532;13.336;2022-10-31T06:15:04;22.93;;;16.97;;
16593;SDS011;8410;52.532;13.336;2022-10-31T06:17:33;25.13;;;17.20;;
16593;SDS011;8410;52.532;13.336;2022-10-31T06:20:02;23.13;;;17.53;;
16593;SDS011;8410;52.532;13.336;2022-10-31T06:22:31;20.50;;;16.70;;
16593;SDS011;8410;52.532;13.336;2022-10-31T06:24:58;27.83;;;18.70;;
16593;SDS011;8410;52.532;13.336;2022-10-31T06:27:26;24.07;;;18.93;;
16593;SDS011;8410;52.532;13.336;2022-10-31T06:29:54;22.63;;;18.07;;
16593;SDS011;8410;52.532;13.336;2022-10-31T06:32:21;21.80;;;17.10;;
16593;SDS011;8410;52.532;13.336;2022-10-31T06:34:49;34.07;;;29.33;;
16593;SDS011;8410;52.532;13.336;2022-10-31T06:37:17;21.97;;;19.57;;
16593;SDS011;8410;52.532;13.336;2022-10-31T06:39:45;31.37;;;21.43;;
16593;SDS011;8410;52.532;13.336;2022-10-31T06:42:12;25.17;;;21.63;;
16593;SDS011;8410;52.532;13.336;2022-10-31T06:44:42;23.43;;;16.83;;
16593;SDS011;8410;52.532;13.336;2022-10-31T06:47:09;19.60;;;17.43;;
16593;SDS011;8410;52.532;13.336;2022-10-31T06:49:37;22.23;;;17.77;;
16593;SDS011;8410;52.532;13.336;2022-10-31T06:52:04;19.60;;;17.50;;
16593;SDS011;8410;52.532;13.336;2022-10-31T06:54:33;24.03;;;17.23;;
16593;SDS011;8410;52.532;13.336;2022-10-31T06:57:01;23.27;;;17.53;;
16593;SDS011;8410;52.532;13.336;2022-10-31T06:59:28;21.73;;;16.67;;
16593;SDS011;8410;52.532;13.336;2022-10-31T07:01:57;21.27;;;16.87;;
16593;SDS011;8410;52.532;13.336;2022-10-31T07:04:24;25.17;;;18.60;;
16593;SDS011;8410;52.532;13.336;2022-10-31T07:06:52;24.23;;;18.27;;
16593;SDS011;8410;52.532;13.336;2022-10-31T07:09:19;23.50;;;17.30;;
16593;SDS011;8410;52.532;13.336;2022-10-31T07:11:48;22.43;;;18.13;;
16593;SDS011;8410;52.532;13.336;2022-10-31T07:14:15;24.10;;;17.73;;
16593;SDS011;8410;52.532;13.336;2022-10-31T07:16:43;25.43;;;19.10;;
16593;SDS011;8410;52.532;13.336;2022-10-31T07:19:10;28.80;;;19.57;;
16593;SDS011;8410;52.532;13.336;2022-10-31T07:21:37;24.10;;;19.73;;
16593;SDS011;8410;52.532;13.336;2022-10-31T07:24:05;25.60;;;18.80;;
16593;SDS011;8410;52.532;13.336;2022-10-31T07:26:32;22.00;;;19.23;;
16593;SDS011;8410;52.532;13.336;2022-10-31T07:29:01;26.47;;;18.97;;
16593;SDS011;8410;52.532;13.336;2022-10-31T07:31:29;30.50;;;19.20;;
16593;SDS011;8410;52.532;13.336;2022-10-31T07:33:56;26.93;;;19.27;;
16593;SDS011;8410;52.532;13.336;2022-10-31T07:36:23;24.37;;;18.07;;
16593;SDS011;8410;52.532;13.336;2022-10-31T07:38:51;26.27;;;18.70;;
16593;SDS011;8410;52.532;13.336;2022-10-31T07:41:18;29.67;;;20.90;;
16593;SDS011;8410;52.532;13.336;2022-10-31T07:43:46;28.33;;;21.20;;
16593;SDS011;8410;52.532;13.336;2022-10-31T07:46:15;24.73;;;20.20;;
16593;SDS011;8410;52.532;13.336;2022-10-31T07:48:42;30.40;;;21.60;;
16593;SDS011;8410;52.532;13.336;2022-10-31T07:51:09;30.40;;;21.93;;
16593;SDS011;8410;52.532;13.336;2022-10-31T07:53:37;26.53;;;21.70;;
16593;SDS011;8410;52.532;13.336;2022-10-31T07:56:04;28.70;;;21.30;;
16593;SDS011;8410;52.532;13.336;2022-10-31T07:58:32;30.70;;;22.17;;
16593;SDS011;8410;52.532;13.336;2022-10-31T08:00:59;27.40;;;21.93;;
16593;SDS011;8410;52.532;13.336;2022-10-31T08:03:28;29.10;;;22.20;;
16593;SDS011;8410;52.532;13.336;2022-10-31T08:05:56;32.67;;;21.80;;
16593;SDS011;8410;52.532;13.336;2022-10-31T08:08:24;27.80;;;23.60;;
16593;SDS011;8410;52.532;13.336;2022-10-31T08:10:58;31.83;;;23.90;;
16593;SDS011;8410;52.532;13.336;2022-10-31T08:13:26;31.07;;;23.03;;
16593;SDS011;8410;52.532;13.336;2022-10-31T08:15:53;29.30;;;23.83;;
16593;SDS011;8410;52.532;13.336;2022-10-31T08:18:21;32.80;;;22.27;;
16593;SDS011;8410;52.532;13.336;2022-10-31T08:20:51;30.30;;;22.97;;
16593;SDS011;8410;52.532;13.336;2022-10-31T08:23:18;30.07;;;22.50;;
16593;SDS011;8410;52.532;13.336;2022-10-31T08:25:46;29.83;;;24.03;;
16593;SDS011;8410;52.532;13.336;2022-10-31T08:28:14;24.80;;;22.00;;
16593;SDS011;8410;52.532;13.336;2022-10-31T08:30:41;28.73;;;22.57;;
16593;SDS011;8410;52.532;13.336;2022-10-31T08:33:10;26.60;;;23.40;;
16593;SDS011;8410;52.532;13.336;2022-10-31T08:35:39;28.60;;;23.37;;
16593;SDS011;8410;52.532;13.336;2022-10-31T08:38:09;34.27;;;23.50;;
16593;SDS011;8410;52.532;13.336;2022-10-31T08:40:37;28.40;;;23.90;;
16593;SDS011;8410;52.532;13.336;2022-10-31T08:43:06;37.37;;;24.93;;
16593;SDS011;8410;52.532;13.336;2022-10-31T08:45:37;36.27;;;25.50;;
16593;SDS011;8410;52.532;13.336;2022-10-31T08:48:06;37.83;;;26.43;;
16593;SDS011;8410;52.532;13.336;2022-10-31T08:50:36;45.83;;;29.17;;
16593;SDS011;8410;52.532;13.336;2022-10-31T08:53:04;39.93;;;26.23;;
16593;SDS011;8410;52.532;13.336;2022-10-31T08:55:35;32.77;;;24.90;;
16593;SDS011;8410;52.532;13.336;2022-10-31T08:58:04;29.17;;;23.47;;
16593;SDS011;8410;52.532;13.336;2022-10-31T09:00:32;34.67;;;25.53;;
16593;SDS011;8410;52.532;13.336;2022-10-31T09:03:03;34.30;;;25.67;;
16593;SDS011;8410;52.532;13.336;2022-10-31T09:05:31;34.17;;;25.67;;
16593;SDS011;8410;52.532;13.336;2022-10-31T09:08:01;35.10;;;27.10;;
16593;SDS011;8410;52.532;13.336;2022-10-31T09:10:30;36.73;;;27.07;;
16593;SDS011;8410;52.532;13.336;2022-10-31T09:13:01;34.43;;;27.27;;
16593;SDS011;8410;52.532;13.336;2022-10-31T09:15:32;32.13;;;28.13;;
16593;SDS011;8410;52.532;13.336;2022-10-31T09:18:01;36.80;;;27.07;;
16593;SDS011;8410;52.532;13.336;2022-10-31T09:20:29;26.40;;;21.27;;
16593;SDS011;8410;52.532;13.336;2022-10-31T09:22:57;27.20;;;22.40;;
16593;SDS011;8410;52.532;13.336;2022-10-31T09:25:26;29.73;;;25.20;;
16593;SDS011;8410;52.532;13.336;2022-10-31T09:27:58;24.87;;;22.17;;
16593;SDS011;8410;52.532;13.336;2022-10-31T09:30:29;38.00;;;24.67;;
16593;SDS011;8410;52.532;13.336;2022-10-31T09:32:58;37.90;;;23.97;;
16593;SDS011;8410;52.532;13.336;2022-10-31T09:35:26;24.00;;;20.83;;
16593;SDS011;8410;52.532;13.336;2022-10-31T09:37:54;34.67;;;24.50;;
16593;SDS011;8410;52.532;13.336;2022-10-31T09:40:23;32.53;;;24.40;;
16593;SDS011;8410;52.532;13.336;2022-10-31T09:42:55;38.20;;;24.87;;
16593;SDS011;8410;52.532;13.336;2022-10-31T09:45:30;30.13;;;23.83;;
16593;SDS011;8410;52.532;13.336;2022-10-31T09:48:09;29.63;;;26.00;;
16593;SDS011;8410;52.532;13.336;2022-10-31T09:50:50;32.73;;;25.23;;
16593;SDS011;8410;52.532;13.336;2022-10-31T09:53:22;28.77;;;23.50;;
16593;SDS011;8410;52.532;13.336;2022-10-31T09:55:53;31.30;;;26.00;;
16593;SDS011;8410;52.532;13.336;2022-10-31T09:58:23;27.40;;;22.03;;
16593;SDS011;8410;52.532;13.336;2022-10-31T10:00:54;32.77;;;25.40;;
16593;SDS011;8410;52.532;13.336;2022-10-31T10:03:28;31.80;;;26.27;;
16593;SDS011;8410;52.532;13.336;2022-10-31T10:06:02;31.03;;;24.20;;
16593;SDS011;8410;52.532;13.336;2022-10-31T10:08:36;32.40;;;27.43;;
16593;SDS011;8410;52.532;13.336;2022-10-31T10:11:07;34.50;;;26.10;;
16593;SDS011;8410;52.532;13.336;2022-10-31T10:13:53;40.00;;;26.17;;
16593;SDS011;8410;52.532;13.336;2022-10-31T10:16:30;29.60;;;24.07;;
16593;SDS011;8410;52.532;13.336;2022-10-31T10:19:11;29.83;;;24.20;;
16593;SDS011;8410;52.532;13.336;2022-10-31T10:21:47;36.13;;;25.20;;
16593;SDS011;8410;52.532;13.336;2022-10-31T10:24:25;34.10;;;24.93;;
16593;SDS011;8410;52.532;13.336;2022-10-31T10:27:03;37.00;;;26.80;;
16593;SDS011;8410;52.532;13.336;2022-10-31T10:29:47;36.43;;;28.10;;
16593;SDS011;8410;52.532;13.336;2022-10-31T10:32:22;38.90;;;27.43;;
16593;SDS011;8410;52.532;13.336;2022-10-31T10:34:52;40.23;;;28.47;;
16593;SDS011;8410;52.532;13.336;2022-10-31T10:37:25;29.57;;;25.40;;
16593;SDS011;8410;52.532;13.336;2022-10-31T10:40:00;43.37;;;30.27;;
16593;SDS011;8410;52.532;13.336;2022-10-31T10:42:35;36.93;;;28.87;;
16593;SDS011;8410;52.532;13.336;2022-10-31T10:45:20;37.67;;;29.40;;
16593;SDS011;8410;52.532;13.336;2022-10-31T10:48:10;32.13;;;26.33;;
16593;SDS011;8410;52.532;13.336;2022-10-31T10:50:44;35.83;;;28.10;;
16593;SDS011;8410;52.532;13.336;2022-10-31T10:53:18;34.27;;;28.67;;
16593;SDS011;8410;52.532;13.336;2022-10-31T10:56:04;34.57;;;26.67;;
16593;SDS011;8410;52.532;13.336;2022-10-31T10:58:39;34.93;;;26.13;;
16593;SDS011;8410;52.532;13.336;2022-10-31T11:01:10;32.73;;;26.07;;
16593;SDS011;8410;52.532;13.336;2022-10-31T11:03:45;33.27;;;25.23;;
16593;SDS011;8410;52.532;13.336;2022-10-31T11:06:16;31.90;;;26.67;;
16593;SDS011;8410;52.532;13.336;2022-10-31T11:08:48;32.17;;;24.60;;
16593;SDS011;8410;52.532;13.336;2022-10-31T11:11:19;34.43;;;25.97;;
16593;SDS011;8410;52.532;13.336;2022-10-31T11:13:54;32.07;;;27.33;;
16593;SDS011;8410;52.532;13.336;2022-10-31T11:16:30;36.73;;;30.20;;
16593;SDS011;8410;52.532;13.336;2022-10-31T11:19:08;37.27;;;29.77;;
16593;SDS011;8410;52.532;13.336;2022-10-31T11:21:43;38.80;;;29.97;;
16593;SDS011;8410;52.532;13.336;2022-10-31T11:24:19;38.20;;;30.70;;
16593;SDS011;8410;52.532;13.336;2022-10-31T11:26:48;40.50;;;30.17;;
16593;SDS011;8410;52.532;13.336;2022-10-31T11:29:20;37.33;;;30.90;;
16593;SDS011;8410;52.532;13.336;2022-10-31T11:31:51;41.90;;;32.07;;
16593;SDS011;8410;52.532;13.336;2022-10-31T11:34:28;38.07;;;30.57;;
16593;SDS011;8410;52.532;13.336;2022-10-31T11:37:00;38.50;;;31.90;;
16593;SDS011;8410;52.532;13.336;2022-10-31T11:39:39;40.67;;;32.40;;
16593;SDS011;8410;52.532;13.336;2022-10-31T11:42:08;34.87;;;29.67;;
16593;SDS011;8410;52.532;13.336;2022-10-31T11:44:36;39.13;;;31.73;;
16593;SDS011;8410;52.532;13.336;2022-10-31T11:47:04;41.53;;;31.03;;
16593;SDS011;8410;52.532;13.336;2022-10-31T11:49:35;40.27;;;30.57;;
16593;SDS011;8410;52.532;13.336;2022-10-31T11:52:06;41.83;;;29.97;;
16593;SDS011;8410;52.532;13.336;2022-10-31T11:54:41;36.17;;;30.87;;
16593;SDS011;8410;52.532;13.336;2022-10-31T11:57:21;40.37;;;32.77;;
16593;SDS011;8410;52.532;13.336;2022-10-31T11:59:50;42.53;;;34.43;;
16593;SDS011;8410;52.532;13.336;2022-10-31T12:02:20;44.00;;;33.33;;
16593;SDS011;8410;52.532;13.336;2022-10-31T12:04:51;36.50;;;30.17;;
16593;SDS011;8410;52.532;13.336;2022-10-31T12:07:25;44.27;;;34.53;;
16593;SDS011;8410;52.532;13.336;2022-10-31T12:09:52;44.00;;;31.87;;
16593;SDS011;8410;52.532;13.336;2022-10-31T12:15:16;41.17;;;30.83;;
16593;SDS011;8410;52.532;13.336;2022-10-31T12:17:55;39.60;;;32.63;;
16593;SDS011;8410;52.532;13.336;2022-10-31T12:20:41;37.23;;;30.23;;
16593;SDS011;8410;52.532;13.336;2022-10-31T12:23:22;36.90;;;30.63;;
16593;SDS011;8410;52.532;13.336;2022-10-31T12:25:58;37.20;;;32.33;;
16593;SDS011;8410;52.532;13.336;2022-10-31T12:28:38;39.57;;;32.13;;
16593;SDS011;8410;52.532;13.336;2022-10-31T12:31:25;35.40;;;30.60;;
16593;SDS011;8410;52.532;13.336;2022-10-31T12:34:11;41.90;;;31.37;;
16593;SDS011;8410;52.532;13.336;2022-10-31T12:36:57;34.40;;;28.20;;
16593;SDS011;8410;52.532;13.336;2022-10-31T12:39:33;38.43;;;30.37;;
16593;SDS011;8410;52.532;13.336;2022-10-31T12:42:12;38.57;;;30.83;;
16593;SDS011;8410;52.532;13.336;2022-10-31T12:44:54;42.10;;;32.03;;
16593;SDS011;8410;52.532;13.336;2022-10-31T12:47:39;40.77;;;31.03;;
16593;SDS011;8410;52.532;13.336;2022-10-31T12:50:18;36.30;;;29.60;;
16593;SDS011;8410;52.532;13.336;2022-10-31T12:53:02;40.17;;;30.37;;
16593;SDS011;8410;52.532;13.336;2022-10-31T12:55:43;39.17;;;30.03;;
16593;SDS011;8410;52.532;13.336;2022-10-31T12:58:19;40.63;;;30.90;;
16593;SDS011;8410;52.532;13.336;2022-10-31T13:00:50;32.70;;;27.70;;
16593;SDS011;8410;52.532;13.336;2022-10-31T13:03:36;37.83;;;31.67;;
16593;SDS011;8410;52.532;13.336;2022-10-31T13:06:13;34.70;;;30.93;;
16593;SDS011;8410;52.532;13.336;2022-10-31T13:08:47;33.30;;;29.70;;
16593;SDS011;8410;52.532;13.336;2022-10-31T13:11:19;36.50;;;29.67;;
16593;SDS011;8410;52.532;13.336;2022-10-31T13:13:54;40.10;;;30.40;;
16593;SDS011;8410;52.532;13.336;2022-10-31T13:16:28;43.43;;;31.73;;
16593;SDS011;8410;52.532;13.336;2022-10-31T13:19:01;32.97;;;29.43;;
16593;SDS011;8410;52.532;13.336;2022-10-31T13:21:37;41.37;;;32.77;;
16593;SDS011;8410;52.532;13.336;2022-10-31T13:24:10;35.03;;;28.83;;
16593;SDS011;8410;52.532;13.336;2022-10-31T13:26:42;43.00;;;31.97;;
16593;SDS011;8410;52.532;13.336;2022-10-31T13:29:16;37.87;;;31.87;;
16593;SDS011;8410;52.532;13.336;2022-10-31T13:31:49;43.97;;;35.00;;
16593;SDS011;8410;52.532;13.336;2022-10-31T13:34:19;46.87;;;36.77;;
16593;SDS011;8410;52.532;13.336;2022-10-31T13:36:55;48.57;;;39.50;;
16593;SDS011;8410;52.532;13.336;2022-10-31T13:39:32;48.23;;;40.07;;
16593;SDS011;8410;52.532;13.336;2022-10-31T13:42:11;53.47;;;42.40;;
16593;SDS011;8410;52.532;13.336;2022-10-31T13:44:46;52.17;;;42.47;;
16593;SDS011;8410;52.532;13.336;2022-10-31T13:47:20;43.73;;;38.87;;
16593;SDS011;8410;52.532;13.336;2022-10-31T13:49:51;44.73;;;37.93;;
16593;SDS011;8410;52.532;13.336;2022-10-31T13:52:22;48.70;;;39.87;;
16593;SDS011;8410;52.532;13.336;2022-10-31T13:54:53;47.17;;;39.43;;
16593;SDS011;8410;52.532;13.336;2022-10-31T13:57:27;46.50;;;39.10;;
16593;SDS011;8410;52.532;13.336;2022-10-31T14:00:00;49.60;;;40.90;;
16593;SDS011;8410;52.532;13.336;2022-10-31T14:02:31;49.50;;;41.03;;
16593;SDS011;8410;52.532;13.336;2022-10-31T14:05:00;55.33;;;43.60;;
16593;SDS011;8410;52.532;13.336;2022-10-31T14:07:30;53.80;;;41.20;;
16593;SDS011;8410;52.532;13.336;2022-10-31T14:10:00;58.00;;;46.53;;
16593;SDS011;8410;52.532;13.336;2022-10-31T14:12:31;54.97;;;43.67;;
16593;SDS011;8410;52.532;13.336;2022-10-31T14:15:04;53.73;;;45.03;;
16593;SDS011;8410;52.532;13.336;2022-10-31T14:17:46;57.17;;;45.03;;
16593;SDS011;8410;52.532;13.336;2022-10-31T14:20:22;70.07;;;45.87;;
16593;SDS011;8410;52.532;13.336;2022-10-31T14:22:57;66.83;;;49.23;;
16593;SDS011;8410;52.532;13.336;2022-10-31T14:25:32;66.37;;;47.43;;
16593;SDS011;8410;52.532;13.336;2022-10-31T14:28:02;62.50;;;49.10;;
16593;SDS011;8410;52.532;13.336;2022-10-31T14:30:50;66.20;;;49.57;;
16593;SDS011;8410;52.532;13.336;2022-10-31T14:33:19;73.50;;;53.10;;
16593;SDS011;8410;52.532;13.336;2022-10-31T14:35:51;70.73;;;52.60;;
16593;SDS011;8410;52.532;13.336;2022-10-31T14:38:29;65.57;;;52.83;;
16593;SDS011;8410;52.532;13.336;2022-10-31T14:41:26;75.30;;;53.57;;
16593;SDS011;8410;52.532;13.336;2022-10-31T14:44:10;70.77;;;53.83;;
16593;SDS011;8410;52.532;13.336;2022-10-31T14:46:57;76.50;;;55.57;;
16593;SDS011;8410;52.532;13.336;2022-10-31T14:49:39;71.73;;;52.60;;
16593;SDS011;8410;52.532;13.336;2022-10-31T14:52:16;72.27;;;53.37;;